Terminal Aerodrome Forecast
Issued by NWS

Home | Current Version | Previous Version | Text Only | Print | Product List | Glossary On
Versions: 1 2 3 4 5 6 7 8 9 10 11 12 13 14 15
000
FTPA31 PHFO 212340
TAFHJH
TAF
PHJH 212340Z 2200/2224 04020G30KT P6SM VCSH FEW030 BKN045
     FM220200 05010KT P6SM FEW030 SCT050
     FM222000 07015G25KT P6SM VCSH SCT030 BKN050
      AMD NOT SKED AFT 220400=

USA.gov is the U.S. government's official web portal to all federal, state and local government web resources and services.